Putnam, Texas
Current Conditions -  °F | °C
As of 7:52 AM on Thursday 27 Nov 2014 (Local Time) from KABI Reporting Station
Clear Clear  
Wind Chill: 34°   Ceiling: Unl
Heat Index: 34°   Visibility: 10mi
Dew Point: 27°   Wind: 3mph
Humidity: 75%   Direction: 240°WSW
Pressure: 30.5"   Gusts: NA
Location:  32.37°N, 99.19°W
Report Text: KABI 271352Z 24003KT 10SM CLR 01/M03 A3050 RMK AO2 SLP332 T00111028
Loading
Personal Weather Stations






























Interactive Weather Map New forecast layout! Learn more

10-Day Weather Forecast

Advertisements
Track Severe Weather on mobile